createdAt,value
2022-09-01T00:02:10.301Z,1.20
2022-09-01T00:07:13.467Z,1.50
2022-09-01T00:12:18.704Z,1.30
2022-09-01T00:17:21.385Z,1.50
2022-09-01T00:22:23.888Z,1.35
2022-09-01T00:27:30.999Z,1.58
2022-09-01T00:32:33.753Z,1.25
2022-09-01T00:37:36.347Z,1.17
2022-09-01T00:42:40.998Z,1.40
2022-09-01T00:47:43.671Z,1.27
2022-09-01T00:52:48.083Z,1.20
2022-09-01T00:57:52.211Z,1.10
2022-09-01T01:02:56.833Z,1.50
2022-09-01T01:08:01.695Z,1.30
2022-09-01T01:13:09.151Z,1.20
2022-09-01T01:18:11.719Z,1.20
2022-09-01T01:23:16.920Z,1.20
2022-09-01T01:28:22.554Z,1.40
2022-09-01T01:33:26.726Z,1.30
2022-09-01T01:38:30.385Z,1.67
2022-09-01T01:43:34.478Z,1.20
2022-09-01T01:48:38.335Z,1.25
2022-09-01T01:53:41.238Z,1.40
2022-09-01T01:58:45.417Z,1.35
2022-09-01T02:03:48.077Z,1.27
2022-09-01T02:08:52.435Z,1.20
2022-09-01T02:13:57.712Z,1.27
2022-09-01T02:19:00.651Z,1.17
2022-09-01T02:24:05.081Z,1.13
2022-09-01T02:29:11.277Z,1.88
2022-09-01T02:34:17.351Z,1.77
2022-09-01T02:39:21.208Z,1.38
2022-09-01T02:44:25.135Z,1.50
2022-09-01T02:49:30.185Z,1.38
2022-09-01T02:54:33.165Z,1.33
2022-09-01T02:59:41.813Z,1.27
2022-09-01T03:04:46.403Z,1.60
2022-09-01T03:09:49.002Z,1.40
2022-09-01T03:14:52.974Z,1.40
2022-09-01T03:19:55.483Z,1.40
2022-09-01T03:24:57.937Z,1.10
2022-09-01T03:30:02.217Z,1.70
2022-09-01T03:35:05.048Z,1.70
2022-09-01T03:40:09.270Z,2.50
2022-09-01T03:45:16.565Z,3.03
2022-09-01T03:50:23.391Z,2.50
2022-09-01T03:55:27.546Z,2.20
2022-09-01T04:00:32.617Z,1.85
2022-09-01T04:05:37.822Z,2.10
2022-09-01T04:10:54.157Z,1.80
2022-09-01T04:15:59.171Z,1.70
2022-09-01T04:21:02.072Z,1.42
2022-09-01T04:26:09.510Z,1.80
2022-09-01T04:31:19.334Z,2.08
2022-09-01T04:36:24.283Z,1.50
2022-09-01T04:41:29.178Z,2.08
2022-09-01T04:46:35.721Z,1.55
2022-09-01T04:51:39.544Z,1.83
2022-09-01T04:56:43.346Z,1.45
2022-09-01T05:01:49.913Z,1.80
2022-09-01T05:06:56.221Z,1.70
2022-09-01T05:12:02.067Z,1.98
2022-09-01T05:17:10.478Z,3.67
2022-09-01T05:22:13.717Z,2.58
2022-09-01T05:27:18.330Z,1.75
2022-09-01T05:32:26.264Z,1.63
2022-09-01T05:37:30.082Z,1.90
2022-09-01T05:43:04.292Z,1.67
2022-09-01T05:48:18.323Z,1.25
2022-09-01T05:53:23.695Z,1.35
2022-09-01T05:59:22.463Z,1.30
2022-09-01T06:03:57.873Z,1.50
2022-09-01T06:09:00.236Z,1.75
2022-09-01T06:14:10.200Z,1.27
2022-09-01T06:19:15.394Z,1.45
2022-09-01T06:24:23.211Z,1.13
2022-09-01T06:29:26.339Z,1.30
2022-09-01T06:34:34.256Z,1.40
2022-09-01T06:39:37.394Z,1.27
2022-09-01T06:44:41.600Z,1.20
2022-09-01T06:49:46.505Z,1.10
2022-09-01T06:54:52.866Z,1.02
2022-09-01T06:59:57.164Z,0.80
2022-09-01T07:05:04.044Z,0.60
2022-09-01T07:10:23.276Z,1.23
2022-09-01T07:21:35.846Z,0.90
2022-09-01T07:26:26.895Z,1.20
2022-09-01T07:38:46.909Z,0.98
2022-09-01T07:47:55.883Z,0.75
2022-09-01T07:53:02.154Z,0.95
2022-09-01T07:58:05.124Z,0.75
2022-09-01T08:03:08.117Z,0.80
2022-09-01T08:08:20.415Z,0.60
2022-09-01T08:13:24.521Z,0.45
2022-09-01T08:18:27.467Z,0.60
2022-09-01T08:23:31.708Z,0.50
2022-09-01T08:28:34.884Z,0.70
2022-09-01T08:33:37.945Z,0.40
2022-09-01T08:38:42.165Z,0.57
2022-09-01T08:43:50.907Z,1.00
2022-09-01T08:54:30.019Z,0.45
2022-09-01T08:59:34.866Z,0.40
2022-09-01T09:04:47.959Z,0.43
2022-09-01T09:09:54.796Z,0.70
2022-09-01T09:15:07.356Z,0.40
2022-09-01T09:20:10.773Z,0.65
2022-09-01T09:25:19.245Z,0.43
2022-09-01T09:30:24.702Z,1.88
2022-09-01T09:35:32.025Z,0.73
2022-09-01T09:40:53.264Z,1.00
2022-09-01T09:46:25.892Z,0.60
2022-09-01T09:51:29.893Z,0.50
2022-09-01T09:56:33.825Z,0.52
2022-09-01T10:01:36.838Z,0.73
2022-09-01T10:06:42.245Z,0.60
2022-09-01T10:11:49.731Z,0.40
2022-09-01T10:16:54.590Z,0.70
2022-09-01T10:21:57.355Z,0.50
2022-09-01T10:27:07.054Z,0.43
2022-09-01T10:32:31.870Z,0.65
2022-09-01T10:37:37.703Z,0.70
2022-09-01T10:42:45.320Z,0.40
2022-09-01T10:47:48.170Z,0.50
2022-09-01T10:52:55.073Z,0.70
2022-09-01T10:59:30.356Z,0.80
2022-09-01T11:03:52.567Z,1.10
2022-09-01T11:08:58.728Z,0.65
2022-09-01T11:14:05.487Z,0.60
2022-09-01T11:23:03.461Z,0.60
2022-09-01T11:28:35.955Z,0.50
2022-09-01T11:33:48.013Z,0.40
2022-09-01T11:38:57.000Z,0.10
2022-09-01T11:44:02.101Z,0.30
2022-09-01T11:49:09.509Z,0.30
2022-09-01T11:54:15.622Z,0.25
2022-09-01T11:59:32.263Z,0.30
2022-09-01T12:04:38.225Z,0.30
2022-09-01T12:09:46.930Z,0.45
2022-09-01T12:15:05.552Z,0.60
2022-09-01T12:20:29.195Z,0.50
2022-09-01T12:25:35.564Z,0.40
2022-09-01T12:30:41.504Z,0.40
2022-09-01T12:35:45.507Z,0.40
2022-09-01T12:40:51.783Z,0.40
2022-09-01T12:45:55.037Z,0.30
2022-09-01T12:50:59.707Z,0.70
2022-09-01T12:56:16.303Z,0.38
2022-09-01T13:01:29.366Z,0.40
2022-09-01T13:06:33.466Z,0.57
2022-09-01T13:17:01.483Z,1.40
2022-09-01T13:22:07.270Z,0.60
2022-09-01T13:27:21.297Z,0.50
2022-09-01T13:32:25.179Z,0.80
2022-09-01T13:37:30.462Z,0.43
2022-09-01T13:42:35.344Z,0.45
2022-09-01T13:48:15.313Z,0.40
2022-09-01T13:53:01.618Z,0.50
2022-09-01T13:58:06.805Z,0.63
2022-09-01T14:03:13.245Z,0.30
2022-09-01T14:08:18.403Z,0.50
2022-09-01T14:13:25.028Z,0.50
